Lincoln, NE

5:12 AM CDT on September 16, 2014 (GMT -0500)
Lincoln Municipal | Change Station
CLOSE
Current Station
Airport
Location: Lincoln,
Elevation: 1188 ft
Nearby Weather Stations

Elev 1188 ft 40.85 °N, 96.76 °W | Updated 18 minutes ago

Clear
Clear
42 °F
Feels Like 42 °F
N
0
Wind Variable Wind from North

Today
High -- | Low -- °F
--% Chance of Precip.
Yesterday
High -- | Low -- °F
Precip. -- in
7:08 AM 7:34 PM
Waning Gibbous, 47% visible
Pressure 30.27 in
Visibility 9.0 miles
Clouds Clear
Dew Point 40 °F
Humidity 92%
Rainfall 0.00 in
Snow Depth Not available.
UV 0 out of 12
Pollen 4.90 out of 12
Air Quality Not available.
Flu Activity Not available.
METAR KLNK 160954Z 00000KT 9SM CLR 06/04 A3026 RMK AO2 SLP249 T00560044 $

More Conditions Fewer Conditions

Pressure 30.27 in
Visibility 9.0 miles
Clouds Clear
Dew Point 40 °F
Humidity 92%
Rainfall 0.00 in
Snow Depth Not available.
UV 0 out of 12
Pollen 4.90 out of 12
Air Quality Not available.
Flu Activity Not available.
METAR KLNK 160954Z 00000KT 9SM CLR 06/04 A3026 RMK AO2 SLP249 T00560044 $

More Conditions Fewer Conditions

10-Day Weather Forecast

Almanac

Astronomy

Sep. 16, 2014 Rise Set
Actual Time 7:08 AM CDT 7:34 PM CDT
Civil Twilight 6:41 AM CDT 8:01 PM CDT
Nautical Twilight 6:08 AM CDT 8:34 PM CDT
Astronomical Twilight 5:35 AM CDT 9:07 PM CDT
Moon 12:17 AM CDT 3:00 PM CDT
Length of Visible Light 13h 20m
Length of Day
12h 25m
Tomorrow will be 2m 41s shorter.
Waning Gibbous, 47% of the Moon is Illuminated
Today
Waning Gibbous
Sep 24
New
Oct 1
First Quarter
Oct 8
Full
Oct 15
Last Quarter

Today's Extremes

State Highs State Lows

Community

WunderPhotos

Upload Photos

1,753,717 photos uploaded!

WunderBlogs® & News

Nearby

Snow Depth

Station Depth Elevation
No new snow has been reported.

Earthquake Activity

City Distance Mag. Time & Date
No recent earthquake activity has been reported nearby.
Minimum magnitude displayed is 2.5.

Coastal Water Temperatures

Place Temperature
No Stations Reporting

Nearby Weather Stations